Hauptseite
METAR-TAF:

METAR-TAF

Flughäfen :

Cervia, Italien

Militärflugplatz Cervia

Breite: 44-13N, Länge: 012-18E, Höhe: 6 m

Beobachtung

Neuester Wetterbericht von vor 52 Minuten, um 22:55 UTC
Wind 3 kt aus Süd
Temperatur 7°C
Luftfeuchtigkeit 87%
Luftdruck 1011 hPa
Sichtweite 10 km oder mehr
keine Wolken unter 1500 m und keine Kumulonimbus oder Gewitterwolken

METAR: LIPC 182255Z 18003KT CAVOK 07/05 Q1011 RMK SKC VIS MIN 9999 WIND THR11 18003KT WIND THR29 /////KT BLU

Zeit: 00:47 (23:47 UTC)

Prognose

Neuester Wetterbericht von vor 47 Minuten, um 23:00 UTC
Gültige Prognose vom 19 um 00 UTC bis 19 um 09 UTC
Wind 5 kt aus West/Südwest
Sichtweite 10 km oder mehr
keine Wolken unter 1500 m und keine Kumulonimbus oder Gewitterwolken
Wahrscheinlichkeit 30% :
Zeitweise
vom 19 um 01 UTC bis 19 um 06 UTC
Sichtweite: 5000 m
feuchter Dunst

TAF: LIPC 182300Z 1900/1909 25005KT CAVOK PROB30 TEMPO 1901/1906 5000 BR NSC

Wetterbeobachtungen und Prognosen von mehr als 4000 Flughäfen (METAR und TAF Bericht).

Die verfügbaren Stationen werden durch gelbe und rote Markierungen auf der Karte dargestellt.

Führen Sie die Maus auf sie, um den Namen der Station zu sehen.

Darauf klicken, um die Beobachtung von Wetterbeobachtungen und Prognosen zu sehen.

Um die Karte zu ändern : klicken Sie auf den grünen Tasten mit einem schwarzen Kreuz Zum Vergrößern, auf den grünen Button mit einem Gedankenstrich zu verkleinern, oder auf die grünen Pfeile für benachbarte Karten.


METAR-TAF: